createdAt,value
2018-11-25T00:01:02.676Z,10.75
2018-11-25T00:03:30.062Z,10.18
2018-11-25T00:05:58.348Z,9.52
2018-11-25T00:08:25.734Z,13.80
2018-11-25T00:10:53.139Z,10.23
2018-11-25T00:13:20.556Z,13.05
2018-11-25T00:15:48.035Z,11.48
2018-11-25T00:18:16.378Z,10.77
2018-11-25T00:20:43.777Z,13.57
2018-11-25T00:23:12.010Z,12.68
2018-11-25T00:25:39.412Z,17.87
2018-11-25T00:28:06.839Z,9.85
2018-11-25T00:30:34.411Z,14.60
2018-11-25T00:33:01.802Z,10.93
2018-11-25T00:35:29.234Z,10.07
2018-11-25T00:37:56.650Z,14.85
2018-11-25T00:40:24.063Z,6.55
2018-11-25T00:42:51.463Z,7.50
2018-11-25T00:45:18.914Z,10.75
2018-11-25T00:47:46.289Z,8.80
2018-11-25T00:50:14.616Z,7.97
2018-11-25T00:52:42.016Z,9.20
2018-11-25T00:55:09.411Z,9.50
2018-11-25T00:57:36.814Z,9.13
2018-11-25T01:00:04.514Z,7.12
2018-11-25T01:02:32.097Z,12.77
2018-11-25T01:04:59.497Z,9.77
2018-11-25T01:07:26.951Z,7.72
2018-11-25T01:09:54.404Z,14.98
2018-11-25T01:12:21.815Z,9.90
2018-11-25T01:14:49.216Z,7.45
2018-11-25T01:17:16.638Z,14.95
2018-11-25T01:19:44.028Z,8.00
2018-11-25T01:22:11.632Z,8.60
2018-11-25T01:24:39.042Z,8.00
2018-11-25T01:27:06.502Z,8.30
2018-11-25T01:29:34.026Z,12.13
2018-11-25T01:32:01.402Z,12.00
2018-11-25T01:34:28.838Z,12.80
2018-11-25T01:36:56.270Z,9.60
2018-11-25T01:39:23.750Z,9.77
2018-11-25T01:41:51.141Z,10.45
2018-11-25T01:44:18.546Z,8.38
2018-11-25T01:46:45.945Z,10.85
2018-11-25T01:49:13.425Z,10.07
2018-11-25T01:51:40.854Z,11.50
2018-11-25T01:54:08.305Z,11.60
2018-11-25T01:56:35.738Z,11.07
2018-11-25T01:59:03.117Z,9.80
2018-11-25T02:01:30.536Z,10.55
2018-11-25T02:03:57.918Z,8.63
2018-11-25T02:06:25.327Z,7.00
2018-11-25T02:08:52.729Z,10.70
2018-11-25T02:11:20.141Z,8.55
2018-11-25T02:13:47.542Z,10.38
2018-11-25T02:16:14.935Z,8.70
2018-11-25T02:18:42.345Z,8.88
2018-11-25T02:21:09.804Z,8.20
2018-11-25T02:23:37.213Z,11.23
2018-11-25T02:26:05.489Z,13.82
2018-11-25T02:28:32.899Z,9.77
2018-11-25T02:31:00.340Z,8.48
2018-11-25T02:33:27.811Z,11.07
2018-11-25T02:35:55.261Z,7.32
2018-11-25T02:40:56.498Z,10.82
2018-11-25T02:43:23.909Z,11.52
2018-11-25T02:45:51.366Z,11.90
2018-11-25T02:48:18.774Z,11.57
2018-11-25T02:50:46.230Z,11.20
2018-11-25T02:53:13.650Z,12.50
2018-11-25T02:55:41.053Z,10.70
2018-11-25T02:58:08.451Z,14.45
2018-11-25T03:00:35.863Z,9.57
2018-11-25T03:03:03.256Z,8.80
2018-11-25T03:05:30.661Z,9.57
2018-11-25T03:07:58.044Z,12.50
2018-11-25T03:10:25.449Z,13.10
2018-11-25T03:12:52.862Z,9.68
2018-11-25T03:15:20.272Z,8.07
2018-11-25T03:17:47.693Z,11.18
2018-11-25T03:20:15.148Z,8.52
2018-11-25T03:22:42.674Z,10.20
2018-11-25T03:25:10.099Z,11.48
2018-11-25T03:27:37.591Z,13.40
2018-11-25T03:30:05.822Z,10.63
2018-11-25T03:32:33.272Z,9.35
2018-11-25T03:35:00.662Z,9.82
2018-11-25T03:37:28.087Z,11.70
2018-11-25T03:39:55.510Z,13.32
2018-11-25T03:42:22.910Z,11.45
2018-11-25T03:44:50.322Z,9.45
2018-11-25T03:47:17.726Z,11.65
2018-11-25T03:49:45.122Z,10.60
2018-11-25T03:52:12.531Z,12.23
2018-11-25T03:54:39.962Z,13.23
2018-11-25T03:57:07.372Z,14.70
2018-11-25T03:59:34.773Z,11.82
2018-11-25T04:02:02.222Z,13.35
2018-11-25T04:04:29.704Z,12.43
2018-11-25T04:06:57.101Z,14.57
2018-11-25T04:09:25.251Z,17.40
2018-11-25T04:11:52.851Z,19.05
2018-11-25T04:14:20.412Z,16.08
2018-11-25T04:16:47.810Z,12.00
2018-11-25T04:19:15.201Z,15.95
2018-11-25T04:21:42.645Z,23.73
2018-11-25T04:24:10.049Z,19.55
2018-11-25T04:26:37.468Z,26.52
2018-11-25T04:29:04.905Z,17.27
2018-11-25T04:31:32.305Z,22.15
2018-11-25T04:33:59.710Z,21.12
2018-11-25T04:36:27.764Z,18.00
2018-11-25T04:38:55.160Z,14.75
2018-11-25T04:41:22.582Z,18.33
2018-11-25T04:43:50.003Z,19.17
2018-11-25T04:46:17.433Z,17.23
2018-11-25T04:48:45.479Z,15.68
2018-11-25T04:51:12.894Z,20.98
2018-11-25T04:53:40.337Z,18.52
2018-11-25T04:56:07.764Z,17.52
2018-11-25T04:58:35.168Z,21.67
2018-11-25T05:01:02.668Z,18.02
2018-11-25T05:03:30.107Z,18.40
2018-11-25T05:05:57.505Z,20.90
2018-11-25T05:08:24.920Z,22.62
2018-11-25T05:10:52.462Z,14.00
2018-11-25T05:13:19.866Z,11.32
2018-11-25T05:15:47.566Z,10.43
2018-11-25T05:18:14.971Z,9.27
2018-11-25T05:20:42.386Z,12.63
2018-11-25T05:23:10.000Z,9.38
2018-11-25T05:25:37.421Z,8.73
2018-11-25T05:28:04.884Z,10.35
2018-11-25T05:30:32.303Z,11.75
2018-11-25T05:32:59.701Z,10.30
2018-11-25T05:35:27.106Z,8.45
2018-11-25T05:37:54.511Z,8.05
2018-11-25T05:40:21.924Z,7.55
2018-11-25T05:42:49.365Z,8.82
2018-11-25T05:45:16.788Z,9.93
2018-11-25T05:47:44.191Z,8.25
2018-11-25T05:50:11.587Z,9.23
2018-11-25T05:52:38.980Z,12.23
2018-11-25T05:55:06.389Z,8.80
2018-11-25T05:57:34.601Z,9.98
2018-11-25T06:00:02.026Z,11.20
2018-11-25T06:02:29.441Z,13.23
2018-11-25T06:04:57.419Z,10.25
2018-11-25T06:07:24.827Z,7.20
2018-11-25T06:09:52.246Z,9.55
2018-11-25T06:12:19.633Z,7.95
2018-11-25T06:14:47.154Z,7.30
2018-11-25T06:17:14.550Z,10.55
2018-11-25T06:19:42.071Z,7.45
2018-11-25T06:22:09.475Z,8.52
2018-11-25T06:24:36.970Z,8.63
2018-11-25T06:27:04.378Z,8.75
2018-11-25T06:29:31.777Z,8.05
2018-11-25T06:31:59.177Z,7.20
2018-11-25T06:34:26.576Z,9.10
2018-11-25T06:36:54.079Z,9.45
2018-11-25T06:39:21.471Z,9.23
2018-11-25T06:41:48.875Z,11.68
2018-11-25T06:44:16.333Z,11.15
2018-11-25T06:46:44.482Z,8.75
2018-11-25T06:49:12.006Z,8.65
2018-11-25T06:51:39.436Z,12.18
2018-11-25T06:54:06.836Z,14.95
2018-11-25T06:56:34.245Z,7.93
2018-11-25T06:59:01.647Z,11.18
2018-11-25T07:01:29.066Z,10.25
2018-11-25T07:03:56.467Z,9.80
2018-11-25T07:06:23.868Z,7.68
2018-11-25T07:08:51.272Z,9.10
2018-11-25T07:11:18.662Z,8.75
2018-11-25T07:13:46.091Z,7.20
2018-11-25T07:16:13.854Z,11.40
2018-11-25T07:18:41.312Z,9.00
2018-11-25T07:21:08.721Z,9.75
2018-11-25T07:23:36.220Z,7.97
2018-11-25T07:26:03.682Z,7.85
2018-11-25T07:28:31.093Z,11.25
2018-11-25T07:30:58.513Z,12.00
2018-11-25T07:33:25.926Z,11.05
2018-11-25T07:35:53.330Z,11.12
2018-11-25T07:38:20.737Z,9.50
2018-11-25T07:40:48.139Z,11.88
2018-11-25T07:43:15.557Z,10.75
2018-11-25T07:45:43.057Z,9.77
2018-11-25T07:48:10.451Z,7.90
2018-11-25T07:50:37.862Z,12.37
2018-11-25T07:53:05.274Z,7.85
2018-11-25T07:55:32.687Z,10.10
2018-11-25T07:58:00.094Z,10.70
2018-11-25T08:00:27.521Z,9.43
2018-11-25T08:02:55.406Z,9.18
2018-11-25T08:05:22.875Z,7.78
2018-11-25T08:07:50.309Z,10.07
2018-11-25T08:10:17.743Z,7.72
2018-11-25T08:12:45.314Z,9.85
2018-11-25T08:15:12.710Z,9.15
2018-11-25T08:17:40.114Z,8.02
2018-11-25T08:20:07.518Z,21.95
2018-11-25T08:22:34.926Z,9.77
2018-11-25T08:25:02.327Z,8.07
2018-11-25T08:27:29.718Z,10.43
2018-11-25T08:29:57.112Z,9.77
2018-11-25T08:32:24.857Z,7.75
2018-11-25T08:34:52.248Z,11.68
2018-11-25T08:37:20.003Z,12.15
2018-11-25T08:39:47.427Z,12.90
2018-11-25T08:42:15.491Z,13.00
2018-11-25T08:44:42.906Z,10.10
2018-11-25T08:47:10.313Z,10.88
2018-11-25T08:49:37.717Z,9.25
2018-11-25T08:52:05.158Z,10.55
2018-11-25T08:54:32.553Z,10.52
2018-11-25T08:56:59.969Z,9.57
2018-11-25T08:59:28.242Z,8.27
2018-11-25T09:01:55.638Z,10.75
2018-11-25T09:04:23.081Z,16.17
2018-11-25T09:06:51.034Z,11.90
2018-11-25T09:09:18.446Z,9.40
2018-11-25T09:11:45.863Z,11.85
2018-11-25T09:14:13.264Z,16.23
2018-11-25T09:16:40.673Z,12.20
2018-11-25T09:19:08.129Z,12.77
2018-11-25T09:21:35.558Z,17.80
2018-11-25T09:24:03.014Z,10.68
2018-11-25T09:26:30.442Z,24.75
2018-11-25T09:28:57.865Z,12.13
2018-11-25T09:31:25.435Z,11.88
2018-11-25T09:33:53.069Z,23.90
2018-11-25T09:36:20.470Z,16.25
2018-11-25T09:38:47.881Z,12.65
2018-11-25T09:41:15.365Z,11.77
2018-11-25T09:43:42.766Z,13.65
2018-11-25T09:46:10.328Z,12.25
2018-11-25T09:48:37.797Z,14.20
2018-11-25T09:51:05.189Z,15.20
2018-11-25T09:53:32.597Z,15.20
2018-11-25T09:55:59.994Z,14.70
2018-11-25T09:58:27.406Z,13.27
2018-11-25T10:00:54.884Z,17.27
2018-11-25T10:03:22.309Z,12.37
2018-11-25T10:05:49.702Z,12.57
2018-11-25T10:08:17.100Z,12.20
2018-11-25T10:10:44.502Z,14.90
2018-11-25T10:13:11.933Z,14.13
2018-11-25T10:15:39.419Z,15.45
2018-11-25T10:18:06.820Z,19.15
2018-11-25T10:20:34.243Z,14.10
2018-11-25T10:23:01.648Z,17.90
2018-11-25T10:25:29.048Z,15.85
2018-11-25T10:27:56.451Z,12.93
2018-11-25T10:30:23.859Z,20.23
2018-11-25T10:32:51.251Z,13.27
2018-11-25T10:35:18.713Z,14.90
2018-11-25T10:37:46.133Z,15.60
2018-11-25T10:40:13.552Z,10.93
2018-11-25T10:42:40.969Z,12.70
2018-11-25T10:45:08.478Z,17.87
2018-11-25T10:47:35.891Z,11.93
2018-11-25T10:50:03.388Z,11.20
2018-11-25T10:52:30.800Z,16.15
2018-11-25T10:54:58.256Z,12.27
2018-11-25T10:57:25.879Z,10.88
2018-11-25T10:59:53.444Z,15.00
2018-11-25T11:02:21.011Z,14.82
2018-11-25T11:04:48.446Z,14.18
2018-11-25T11:07:26.691Z,17.98
2018-11-25T11:09:54.115Z,12.82
2018-11-25T11:12:21.522Z,13.43
2018-11-25T11:14:48.927Z,14.52
2018-11-25T11:17:16.328Z,12.60
2018-11-25T11:19:43.758Z,13.75
2018-11-25T11:22:11.181Z,16.62
2018-11-25T11:24:38.584Z,13.77
2018-11-25T11:27:05.999Z,18.80
2018-11-25T11:29:33.997Z,13.98
2018-11-25T11:32:01.493Z,15.70
2018-11-25T11:34:29.010Z,16.75
2018-11-25T11:36:56.467Z,13.10
2018-11-25T11:39:23.903Z,15.93
2018-11-25T11:41:51.521Z,14.15
2018-11-25T11:44:18.949Z,19.27
2018-11-25T11:46:46.363Z,12.57
2018-11-25T11:49:13.808Z,12.70
2018-11-25T11:51:41.217Z,12.65
2018-11-25T11:54:08.649Z,13.27
2018-11-25T11:56:40.244Z,16.58
2018-11-25T11:59:03.486Z,14.18
2018-11-25T12:01:30.940Z,14.75
2018-11-25T12:03:58.359Z,13.95
2018-11-25T12:06:25.778Z,20.05
2018-11-25T12:08:53.280Z,13.82
2018-11-25T12:11:20.737Z,19.25
2018-11-25T12:13:48.173Z,16.98
2018-11-25T12:16:15.628Z,17.45
2018-11-25T12:18:43.143Z,15.88
2018-11-25T12:21:10.543Z,14.00
2018-11-25T12:23:37.958Z,15.63
2018-11-25T12:26:05.375Z,14.45
2018-11-25T12:28:32.827Z,15.15
2018-11-25T12:31:00.322Z,14.52
2018-11-25T12:33:27.726Z,20.25
2018-11-25T12:35:55.180Z,14.80
2018-11-25T12:38:22.606Z,16.23
2018-11-25T12:40:50.498Z,13.23
2018-11-25T12:43:17.909Z,14.15
2018-11-25T12:45:45.322Z,17.30
2018-11-25T12:48:13.691Z,13.20
2018-11-25T12:50:41.317Z,13.52
2018-11-25T12:53:08.719Z,14.27
2018-11-25T12:55:36.180Z,18.73
2018-11-25T12:58:04.773Z,18.92
2018-11-25T13:00:32.174Z,16.15
2018-11-25T13:02:59.621Z,15.05
2018-11-25T13:05:28.129Z,12.43
2018-11-25T13:07:55.582Z,15.18
2018-11-25T13:10:22.966Z,14.10
2018-11-25T13:12:50.435Z,12.07
2018-11-25T13:15:17.849Z,15.07
2018-11-25T13:17:45.325Z,12.85
2018-11-25T13:20:13.482Z,14.65
2018-11-25T13:22:41.074Z,11.55
2018-11-25T13:25:08.553Z,13.10
2018-11-25T13:27:36.346Z,14.80
2018-11-25T13:30:03.742Z,12.98
2018-11-25T13:32:31.197Z,10.73
2018-11-25T13:34:58.682Z,15.73
2018-11-25T13:37:26.093Z,12.52
2018-11-25T13:39:53.542Z,14.38
2018-11-25T13:42:20.945Z,12.02
2018-11-25T13:44:48.042Z,11.35
2018-11-25T13:47:15.428Z,11.12
2018-11-25T13:49:42.870Z,16.05
2018-11-25T13:52:10.323Z,15.10
2018-11-25T13:54:37.771Z,16.40
2018-11-25T13:57:05.217Z,14.82
2018-11-25T13:59:32.606Z,14.82
2018-11-25T14:02:00.041Z,16.90
2018-11-25T14:04:27.457Z,11.80
2018-11-25T14:06:54.878Z,18.92
2018-11-25T14:09:22.300Z,18.37
2018-11-25T14:11:49.712Z,15.82
2018-11-25T14:14:17.320Z,16.75
2018-11-25T14:16:44.821Z,16.77
2018-11-25T14:19:12.229Z,15.00
2018-11-25T14:21:39.640Z,13.15
2018-11-25T14:24:07.057Z,20.27
2018-11-25T14:26:34.496Z,12.80
2018-11-25T14:29:01.954Z,15.48
2018-11-25T14:31:29.458Z,19.67
2018-11-25T14:33:56.871Z,14.13
2018-11-25T14:36:24.277Z,11.82
2018-11-25T14:38:51.683Z,16.08
2018-11-25T14:41:19.078Z,16.02
2018-11-25T14:43:46.508Z,15.48
2018-11-25T14:46:14.688Z,14.52
2018-11-25T14:48:42.081Z,19.10
2018-11-25T14:51:09.565Z,14.35
2018-11-25T14:53:36.969Z,20.27
2018-11-25T14:56:04.424Z,18.80
2018-11-25T14:58:31.946Z,14.13
2018-11-25T15:00:59.357Z,14.00
2018-11-25T15:03:26.885Z,17.48
2018-11-25T15:05:55.562Z,14.57
2018-11-25T15:08:22.971Z,19.62
2018-11-25T15:10:51.131Z,19.40
2018-11-25T15:13:18.546Z,17.95
2018-11-25T15:15:46.251Z,19.00
2018-11-25T15:18:13.831Z,15.88
2018-11-25T15:20:41.336Z,18.02
2018-11-25T15:23:08.724Z,15.80
2018-11-25T15:25:36.147Z,17.42
2018-11-25T15:28:03.571Z,15.40
2018-11-25T15:30:31.052Z,16.80
2018-11-25T15:32:59.515Z,13.35
2018-11-25T15:35:26.981Z,17.67
2018-11-25T15:37:54.460Z,16.52
2018-11-25T15:40:22.361Z,12.82
2018-11-25T15:42:49.951Z,12.18
2018-11-25T15:45:17.360Z,18.73
2018-11-25T15:47:44.853Z,16.52
2018-11-25T15:50:12.273Z,13.27
2018-11-25T15:52:39.675Z,15.32
2018-11-25T15:55:07.289Z,18.98
2018-11-25T15:57:34.770Z,18.52
2018-11-25T16:00:02.325Z,18.83
2018-11-25T16:02:29.851Z,18.58
2018-11-25T16:04:57.651Z,15.43
2018-11-25T16:07:25.177Z,16.77
2018-11-25T16:09:52.614Z,12.60
2018-11-25T16:12:20.043Z,18.25
2018-11-25T16:14:47.499Z,19.37
2018-11-25T16:17:14.944Z,14.43
2018-11-25T16:19:42.348Z,14.93
2018-11-25T16:22:09.933Z,11.40
2018-11-25T16:24:39.152Z,16.58
2018-11-25T16:27:06.581Z,17.52
2018-11-25T16:29:34.049Z,16.65
2018-11-25T16:32:01.568Z,16.58
2018-11-25T16:34:28.967Z,19.58
2018-11-25T16:36:56.510Z,19.80
2018-11-25T16:39:23.919Z,16.08
2018-11-25T16:41:51.518Z,12.20
2018-11-25T16:44:18.916Z,12.60
2018-11-25T16:46:46.452Z,14.90
2018-11-25T16:49:13.871Z,12.43
2018-11-25T16:51:41.430Z,13.23
2018-11-25T16:54:08.810Z,13.40
2018-11-25T16:56:36.261Z,12.07
2018-11-25T16:59:03.659Z,14.77
2018-11-25T17:01:31.202Z,11.82
2018-11-25T17:03:59.298Z,11.25
2018-11-25T17:06:26.721Z,12.90
2018-11-25T17:08:54.168Z,13.57
2018-11-25T17:11:21.650Z,10.32
2018-11-25T17:13:49.320Z,9.38
2018-11-25T17:16:16.751Z,12.65
2018-11-25T17:18:44.281Z,14.27
2018-11-25T17:21:11.808Z,15.52
2018-11-25T17:23:39.239Z,12.23
2018-11-25T17:26:06.681Z,13.88
2018-11-25T17:28:34.130Z,17.62
2018-11-25T17:31:01.514Z,19.77
2018-11-25T17:33:28.938Z,16.42
2018-11-25T17:35:56.420Z,17.02
2018-11-25T17:38:24.962Z,20.65
2018-11-25T17:40:51.636Z,17.83
2018-11-25T17:43:19.064Z,15.25
2018-11-25T17:45:46.549Z,17.80
2018-11-25T17:48:14.013Z,15.52
2018-11-25T17:50:41.428Z,14.75
2018-11-25T17:53:08.918Z,19.50
2018-11-25T17:55:37.655Z,18.30
2018-11-25T17:58:05.371Z,23.30
2018-11-25T18:00:32.759Z,18.83
2018-11-25T18:03:00.182Z,20.70
2018-11-25T18:05:27.596Z,18.30
2018-11-25T18:07:56.158Z,21.90
2018-11-25T18:10:23.591Z,18.90
2018-11-25T18:12:50.999Z,19.75
2018-11-25T18:15:19.040Z,21.45
2018-11-25T18:17:47.498Z,17.80
2018-11-25T18:20:14.977Z,20.60
2018-11-25T18:22:42.407Z,21.77
2018-11-25T18:25:09.815Z,17.37
2018-11-25T18:27:37.227Z,21.20
2018-11-25T18:30:05.569Z,18.83
2018-11-25T18:32:33.206Z,21.75
2018-11-25T18:35:00.915Z,23.17
2018-11-25T18:37:28.424Z,20.48
2018-11-25T18:39:55.838Z,20.10
2018-11-25T18:42:23.291Z,19.52
2018-11-25T18:44:51.136Z,19.80
2018-11-25T18:47:18.634Z,22.02
2018-11-25T18:49:46.092Z,20.88
2018-11-25T18:52:13.958Z,24.05
2018-11-25T18:54:41.344Z,19.98
2018-11-25T18:57:08.874Z,19.77
2018-11-25T18:59:36.273Z,25.30
2018-11-25T19:02:04.830Z,25.33
2018-11-25T19:04:32.242Z,22.20
2018-11-25T19:06:59.935Z,20.77
2018-11-25T19:09:27.439Z,20.35
2018-11-25T19:11:54.914Z,22.45
2018-11-25T19:14:23.010Z,29.10
2018-11-25T19:16:50.425Z,25.02
2018-11-25T19:19:17.812Z,18.27
2018-11-25T19:21:45.314Z,21.55
2018-11-25T19:24:12.720Z,22.40
2018-11-25T19:26:40.803Z,20.10
2018-11-25T19:29:08.310Z,17.70
2018-11-25T19:31:35.714Z,20.48
2018-11-25T19:34:03.988Z,23.40
2018-11-25T19:36:31.460Z,20.83
2018-11-25T19:38:58.879Z,25.40
2018-11-25T19:41:26.299Z,20.83
2018-11-25T19:43:53.997Z,20.30
2018-11-25T19:46:21.484Z,20.98
2018-11-25T19:48:48.921Z,18.55
2018-11-25T19:51:17.702Z,18.00
2018-11-25T19:53:43.787Z,21.87
2018-11-25T19:56:11.195Z,16.67
2018-11-25T19:58:38.654Z,25.58
2018-11-25T20:01:06.057Z,31.50
2018-11-25T20:03:33.578Z,18.85
2018-11-25T20:06:01.066Z,26.27
2018-11-25T20:08:28.673Z,19.77
2018-11-25T20:10:56.258Z,21.12
2018-11-25T20:13:23.677Z,18.08
2018-11-25T20:15:51.089Z,24.50
2018-11-25T20:18:18.512Z,19.83
2018-11-25T20:20:46.014Z,19.08
2018-11-25T20:23:13.420Z,25.95
2018-11-25T20:25:40.867Z,19.65
2018-11-25T20:28:08.265Z,23.50
2018-11-25T20:30:35.703Z,27.80
2018-11-25T20:33:08.691Z,22.70
2018-11-25T20:35:36.098Z,23.95
2018-11-25T20:38:03.503Z,23.77
2018-11-25T20:40:30.985Z,20.42
2018-11-25T20:42:58.378Z,24.73
2018-11-25T20:45:25.825Z,26.95
2018-11-25T20:47:53.222Z,23.70
2018-11-25T20:50:20.625Z,30.20
2018-11-25T20:55:42.271Z,28.33
2018-11-25T20:58:09.676Z,26.98
2018-11-25T21:00:37.179Z,29.60
2018-11-25T21:03:04.654Z,25.37
2018-11-25T21:05:32.105Z,21.98
2018-11-25T21:08:00.344Z,26.10
2018-11-25T21:10:27.816Z,27.92
2018-11-25T21:12:55.218Z,25.70
2018-11-25T21:15:22.624Z,25.48
2018-11-25T21:17:50.087Z,25.27
2018-11-25T21:20:17.659Z,18.80
2018-11-25T21:22:45.167Z,28.12
2018-11-25T21:25:12.769Z,23.90
2018-11-25T21:27:40.254Z,27.58
2018-11-25T21:30:07.837Z,23.25
2018-11-25T21:32:35.342Z,25.02
2018-11-25T21:35:02.798Z,23.02
2018-11-25T21:37:30.268Z,26.20
2018-11-25T21:39:57.714Z,25.10
2018-11-25T21:42:25.155Z,30.77
2018-11-25T21:44:52.623Z,24.52
2018-11-25T21:47:20.059Z,28.58
2018-11-25T21:49:47.658Z,30.37
2018-11-25T21:52:16.581Z,38.50
2018-11-25T21:54:44.370Z,29.08
2018-11-25T21:57:11.954Z,31.12
2018-11-25T21:59:39.367Z,30.35
2018-11-25T22:02:06.773Z,25.00
2018-11-25T22:04:34.241Z,24.75
2018-11-25T22:07:01.660Z,26.87
2018-11-25T22:09:30.064Z,25.40
2018-11-25T22:11:57.503Z,20.65
2018-11-25T22:14:24.975Z,29.25
2018-11-25T22:16:52.398Z,19.25
2018-11-25T22:19:19.779Z,23.05
2018-11-25T22:21:47.255Z,24.95
2018-11-25T22:24:14.706Z,32.35
2018-11-25T22:26:42.337Z,25.67
2018-11-25T22:29:09.761Z,36.17
2018-11-25T22:31:37.247Z,23.15
2018-11-25T22:34:04.693Z,24.00
2018-11-25T22:36:32.074Z,27.55
2018-11-25T22:38:59.713Z,28.05
2018-11-25T22:41:27.170Z,31.37
2018-11-25T22:43:54.564Z,29.55
2018-11-25T22:46:21.968Z,24.05
2018-11-25T22:48:49.408Z,30.73
2018-11-25T22:51:16.815Z,26.80
2018-11-25T22:53:44.230Z,31.08
2018-11-25T22:56:11.939Z,22.87
2018-11-25T22:58:39.411Z,22.05
2018-11-25T23:01:06.826Z,23.67
2018-11-25T23:03:34.230Z,28.12
2018-11-25T23:09:17.748Z,33.42
2018-11-25T23:11:45.207Z,21.87
2018-11-25T23:14:12.676Z,18.90
2018-11-25T23:16:40.093Z,20.25
2018-11-25T23:19:07.610Z,22.83
2018-11-25T23:21:35.037Z,19.92
2018-11-25T23:24:03.594Z,26.90
2018-11-25T23:26:29.961Z,23.40
2018-11-25T23:28:57.478Z,19.85
2018-11-25T23:31:24.998Z,21.73
2018-11-25T23:33:52.788Z,21.20
2018-11-25T23:36:20.204Z,17.40
2018-11-25T23:38:47.671Z,19.87
2018-11-25T23:41:15.126Z,19.08
2018-11-25T23:43:42.536Z,21.37
2018-11-25T23:46:09.940Z,17.50
2018-11-25T23:48:37.374Z,22.17
2018-11-25T23:51:04.789Z,18.50
2018-11-25T23:53:32.219Z,21.83
2018-11-25T23:55:59.612Z,22.15
2018-11-25T23:58:27.013Z,21.87
